Dati meteorologici dell'aviazione (METAR)     EBBR Brussels Airport
Temperatura
14°C Temperatura
10°C Punto di rugiada
77% Umidità



Vento
10 KM/H
6 MPH
3 M/S
5 KTS



200°
SSW
Condizioni attuali

Chiaro Chiaro
Pressione 1016.92 (hPa) - 30.03 (inHg)
Visibilità 6.2 (miglio) - 10 (km)
Aeroporto
Codice-Aeroporto EBBR

Posizione: Brussels Airport
Distanza: 16 (km)

Metar:
EBBR 140420Z 20005KT CAVOK 14/10 Q1017 NOSIG

Ore: 14-07-2020 06:20 CEST